Deva Mariya — UUCU — position and weather

sailwx.info

Track history (hours):
 
Tides and Currents Weather Stations Pressure Air Temp Water Temp Dewpoint Dewpoint Depression Visibility Wind Speed Wind Dir Waves Ship Positions

Deva Mariya

Last reported at 2018-Jun-22 20:26 UTC. Time now 2018-Jun-23 02:55 UTC.
Position N 46°35' E 031°01'.

Length 94 m; draft 2 m.

Type: Cargo ship. MMSI: 272068700.

Date/timePositionNaut miles runAvg speedWind from/ knotsBaromVisibWave heightAir tempDewpointWater temp
2018-Jun-22 20:26N 46°35' E 031°01'3 6.4
2018-Jun-22 19:59N 46°32' E 031°03'3 6.2
2018-Jun-22 19:30N 46°29' E 031°04'5 6.2
2018-Jun-22 18:44N 46°25' E 031°07'15 5.9
2018-Jun-22 16:12N 46°16' E 031°25'2 6.6
2018-Jun-22 15:56N 46°15' E 031°26'7 6.5
2018-Jun-22 14:55N 46°09' E 031°31'3 6.6
2018-Jun-22 14:30N 46°07' E 031°33'3 6.8
2018-Jun-22 14:00N 46°04' E 031°35'8 6.9
2018-Jun-22 12:47N 45°56' E 031°41'3 7.0
2018-Jun-22 12:25N 45°54' E 031°43'3 6.9
2018-Jun-22 11:58N 45°52' E 031°46'68 6.5
2018-Jun-22 01:30N 44°56' E 032°41'10 6.8
2018-Jun-21 23:58N 44°48' E 032°51'17 6.5
2018-Jun-21 21:16N 44°35' E 033°08'2 6.5
2018-Jun-21 21:00N 44°34' E 033°09'3 6.4
2018-Jun-21 20:30N 44°31' E 033°12'3 6.5
2018-Jun-21 20:00N 44°29' E 033°15'3 6.5
2018-Jun-21 19:29N 44°26' E 033°18'5 6.3
2018-Jun-21 18:47N 44°23' E 033°23'2 6.2
2018-Jun-21 18:30N 44°22' E 033°24'3 6.2
2018-Jun-21 18:00N 44°19' E 033°27'3 6.3
2018-Jun-21 17:30N 44°18' E 033°31'3 6.8
2018-Jun-21 17:00N 44°17' E 033°36'4 7.0
2018-Jun-21 16:30N 44°18' E 033°41'4 7.1
2018-Jun-21 16:00N 44°18' E 033°46'4 7.0
2018-Jun-21 15:27N 44°18' E 033°51'3 6.9
2018-Jun-21 15:00N 44°18' E 033°56'3 6.7
2018-Jun-21 14:30N 44°18' E 034°00'4 6.8
2018-Jun-21 13:58N 44°20' E 034°05'121 6.4
2018-Jun-20 18:55N 45°19' E 036°33'3 6.8
2018-Jun-20 18:30N 45°21' E 036°37'3 6.2
2018-Jun-20 18:00N 45°23' E 036°40'4 7.0
2018-Jun-20 17:30N 45°26' E 036°40'2 1.0
2018-Jun-20 15:54N 45°28' E 036°39'0 0.0
2018-Jun-20 14:38N 45°28' E 036°39'0 0.0
2018-Jun-20 14:19N 45°28' E 036°39'0 0.0
2018-Jun-20 14:00N 45°28' E 036°39'0 0.0
2018-Jun-20 13:30N 45°28' E 036°39'0 0.0
2018-Jun-20 13:00N 45°28' E 036°39'0 0.0
2018-Jun-20 12:30N 45°28' E 036°39'0 0.0
2018-Jun-20 12:00N 45°28' E 036°39'0 0.0
2018-Jun-20 11:30N 45°28' E 036°39'0 0.0
2018-Jun-20 10:33N 45°28' E 036°39'0 0.0
2018-Jun-20 09:27N 45°28' E 036°39'0 0.0
2018-Jun-20 08:48N 45°28' E 036°39'0 0.0
2018-Jun-20 08:29N 45°28' E 036°39'0 0.0
2018-Jun-20 07:57N 45°28' E 036°39'0 0.0
2018-Jun-20 07:28N 45°28' E 036°39'0 0.0
2018-Jun-20 07:00N 45°28' E 036°39'0 0.0
2018-Jun-20 06:27N 45°28' E 036°39'0 0.0
2018-Jun-20 06:00N 45°28' E 036°39'0 0.0
2018-Jun-20 05:30N 45°28' E 036°39'0 0.0
2018-Jun-20 04:58N 45°28' E 036°39'0 0.0
2018-Jun-20 04:30N 45°28' E 036°39'0 0.0
2018-Jun-19 15:40N 45°28' E 036°39'0 0.0
2018-Jun-19 15:30N 45°28' E 036°39'0 0.0
2018-Jun-19 14:45N 45°28' E 036°39'0 0.0
2018-Jun-19 14:27N 45°28' E 036°39'0 0.0
2018-Jun-19 13:47N 45°28' E 036°39'0 0.0
2018-Jun-19 12:28N 45°28' E 036°39'0 0.0
2018-Jun-19 11:02N 45°28' E 036°39'0 0.0
2018-Jun-19 10:41N 45°28' E 036°39'0 0.0
2018-Jun-19 10:30N 45°28' E 036°39'0 0.0
2018-Jun-19 09:51N 45°28' E 036°39'0 0.0
2018-Jun-19 09:29N 45°28' E 036°39'0 0.2
2018-Jun-19 08:43N 45°28' E 036°39'1 4.1
2018-Jun-19 08:30N 45°28' E 036°40'  
2018-Jun-16 23:35N 45°26' E 036°42'1 5.8
2018-Jun-16 23:25N 45°25' E 036°41'2 5.9
2018-Jun-16 23:00N 45°23' E 036°40'3 5.7
2018-Jun-16 22:30N 45°21' E 036°38'11 1.7
2018-Jun-16 16:13N 45°11' E 036°30'0 0.0
2018-Jun-16 14:14N 45°11' E 036°30'0 0.0
2018-Jun-16 13:50N 45°11' E 036°30'167 4.3
2018-Jun-14 22:59N 44°59' E 032°33'3 5.9
2018-Jun-14 22:30N 45°02' E 032°32'3 6.0
2018-Jun-14 22:00N 45°04' E 032°30'4 5.9
2018-Jun-14 21:20N 45°08' E 032°28'2 5.7
2018-Jun-14 21:00N 45°10' E 032°26'83 5.9
2018-Jun-14 06:57N 46°18' E 031°19'7 5.6
2018-Jun-14 05:44N 46°23' E 031°13'1 5.6
2018-Jun-14 05:29N 46°24' E 031°12'3 5.8
2018-Jun-14 04:59N 46°25' E 031°08'3 5.6
2018-Jun-14 04:30N 46°26' E 031°04'3 5.4
2018-Jun-14 03:57N 46°27' E 031°00'2 5.2
2018-Jun-14 03:30N 46°28' E 030°57'3 5.2
2018-Jun-14 03:00N 46°31' E 030°56'2 4.9
2018-Jun-14 02:30N 46°33' E 030°58'3 5.1
2018-Jun-14 02:00N 46°34' E 031°00'3 5.3
2018-Jun-14 01:30N 46°37' E 031°01'0 0.2
2018-Jun-14 01:00N 46°37' E 031°02'0 0.0
2018-Jun-13 23:17N 46°37' E 031°02'0 0.0
2018-Jun-13 22:59N 46°37' E 031°02'0 0.0
2018-Jun-13 22:30N 46°37' E 031°02'0 0.0
2018-Jun-13 22:00N 46°37' E 031°02'0 0.0
2018-Jun-13 21:30N 46°37' E 031°02'0 0.0
2018-Jun-13 21:00N 46°37' E 031°02'0 0.0
2018-Jun-13 20:30N 46°37' E 031°02'0 0.0
2018-Jun-13 19:52N 46°37' E 031°02'0 0.0
2018-Jun-13 19:25N 46°37' E 031°02'0 0.0
2018-Jun-13 18:59N 46°37' E 031°02'0 0.0
2018-Jun-13 18:30N 46°37' E 031°02'0 0.0
2018-Jun-13 17:57N 46°37' E 031°02'0 0.0
2018-Jun-13 17:30N 46°37' E 031°02'0 0.0
2018-Jun-13 16:58N 46°37' E 031°02'0 0.0
2018-Jun-13 16:25N 46°37' E 031°02'0 0.0
2018-Jun-13 16:00N 46°37' E 031°02'0 0.0
2018-Jun-13 03:54N 46°37' E 031°02'0 0.0
2018-Jun-13 03:29N 46°37' E 031°02'0 0.0
2018-Jun-13 02:59N 46°37' E 031°02'0 0.0
2018-Jun-13 02:29N 46°37' E 031°02'0 0.0
2018-Jun-13 01:58N 46°37' E 031°02'0 0.0
2018-Jun-13 01:25N 46°37' E 031°02'0 0.0
2018-Jun-13 00:56N 46°37' E 031°02'0 0.1
2018-Jun-13 00:30N 46°37' E 031°02'0 0.0
2018-Jun-13 00:00N 46°37' E 031°02'0 0.0
2018-Jun-12 23:30N 46°37' E 031°02'0 0.0
2018-Jun-12 23:00N 46°37' E 031°02'1 1.4
2018-Jun-12 22:28N 46°36' E 031°01'3 5.5
2018-Jun-12 22:00N 46°34' E 031°01'2 3.3
2018-Jun-12 21:30N 46°35' E 031°03'0 0.1
2018-Jun-12 20:57N 46°35' E 031°03'0 0.0
2018-Jun-12 20:30N 46°35' E 031°03'  
Track history (hours):
 
Tides and Currents Weather Stations Pressure Air Temp Water Temp Dewpoint Dewpoint Depression Visibility Wind Speed Wind Dir Waves Ship Positions

Deva Mariya

Last reported at 2018-Jun-22 20:26 UTC. Time now 2018-Jun-23 02:55 UTC.
Position N 46°35' E 031°01'.

Length 94 m; draft 2 m.

Type: Cargo ship. MMSI: 272068700.

Date/timePositionNaut miles runAvg speedWind from/ knotsBaromVisibWave heightAir tempDewpointWater temp
2018-Jun-22 20:26N 46°35' E 031°01'3 6.4
2018-Jun-22 19:59N 46°32' E 031°03'3 6.2
2018-Jun-22 19:30N 46°29' E 031°04'5 6.2
2018-Jun-22 18:44N 46°25' E 031°07'15 5.9
2018-Jun-22 16:12N 46°16' E 031°25'2 6.6
2018-Jun-22 15:56N 46°15' E 031°26'7 6.5
2018-Jun-22 14:55N 46°09' E 031°31'3 6.6
2018-Jun-22 14:30N 46°07' E 031°33'3 6.8
2018-Jun-22 14:00N 46°04' E 031°35'8 6.9
2018-Jun-22 12:47N 45°56' E 031°41'3 7.0
2018-Jun-22 12:25N 45°54' E 031°43'3 6.9
2018-Jun-22 11:58N 45°52' E 031°46'68 6.5
2018-Jun-22 01:30N 44°56' E 032°41'10 6.8
2018-Jun-21 23:58N 44°48' E 032°51'17 6.5
2018-Jun-21 21:16N 44°35' E 033°08'2 6.5
2018-Jun-21 21:00N 44°34' E 033°09'3 6.4
2018-Jun-21 20:30N 44°31' E 033°12'3 6.5
2018-Jun-21 20:00N 44°29' E 033°15'3 6.5
2018-Jun-21 19:29N 44°26' E 033°18'5 6.3
2018-Jun-21 18:47N 44°23' E 033°23'2 6.2
2018-Jun-21 18:30N 44°22' E 033°24'3 6.2
2018-Jun-21 18:00N 44°19' E 033°27'3 6.3
2018-Jun-21 17:30N 44°18' E 033°31'3 6.8
2018-Jun-21 17:00N 44°17' E 033°36'4 7.0
2018-Jun-21 16:30N 44°18' E 033°41'4 7.1
2018-Jun-21 16:00N 44°18' E 033°46'4 7.0
2018-Jun-21 15:27N 44°18' E 033°51'3 6.9
2018-Jun-21 15:00N 44°18' E 033°56'3 6.7
2018-Jun-21 14:30N 44°18' E 034°00'4 6.8
2018-Jun-21 13:58N 44°20' E 034°05'121 6.4
2018-Jun-20 18:55N 45°19' E 036°33'3 6.8
2018-Jun-20 18:30N 45°21' E 036°37'3 6.2
2018-Jun-20 18:00N 45°23' E 036°40'4 7.0
2018-Jun-20 17:30N 45°26' E 036°40'2 1.0
2018-Jun-20 15:54N 45°28' E 036°39'0 0.0
2018-Jun-20 14:38N 45°28' E 036°39'0 0.0
2018-Jun-20 14:19N 45°28' E 036°39'0 0.0
2018-Jun-20 14:00N 45°28' E 036°39'0 0.0
2018-Jun-20 13:30N 45°28' E 036°39'0 0.0
2018-Jun-20 13:00N 45°28' E 036°39'0 0.0
2018-Jun-20 12:30N 45°28' E 036°39'0 0.0
2018-Jun-20 12:00N 45°28' E 036°39'0 0.0
2018-Jun-20 11:30N 45°28' E 036°39'0 0.0
2018-Jun-20 10:33N 45°28' E 036°39'0 0.0
2018-Jun-20 09:27N 45°28' E 036°39'0 0.0
2018-Jun-20 08:48N 45°28' E 036°39'0 0.0
2018-Jun-20 08:29N 45°28' E 036°39'0 0.0
2018-Jun-20 07:57N 45°28' E 036°39'0 0.0
2018-Jun-20 07:28N 45°28' E 036°39'0 0.0
2018-Jun-20 07:00N 45°28' E 036°39'0 0.0
2018-Jun-20 06:27N 45°28' E 036°39'0 0.0
2018-Jun-20 06:00N 45°28' E 036°39'0 0.0
2018-Jun-20 05:30N 45°28' E 036°39'0 0.0
2018-Jun-20 04:58N 45°28' E 036°39'0 0.0
2018-Jun-20 04:30N 45°28' E 036°39'0 0.0
2018-Jun-19 15:40N 45°28' E 036°39'0 0.0
2018-Jun-19 15:30N 45°28' E 036°39'0 0.0
2018-Jun-19 14:45N 45°28' E 036°39'0 0.0
2018-Jun-19 14:27N 45°28' E 036°39'0 0.0
2018-Jun-19 13:47N 45°28' E 036°39'0 0.0
2018-Jun-19 12:28N 45°28' E 036°39'0 0.0
2018-Jun-19 11:02N 45°28' E 036°39'0 0.0
2018-Jun-19 10:41N 45°28' E 036°39'0 0.0
2018-Jun-19 10:30N 45°28' E 036°39'0 0.0
2018-Jun-19 09:51N 45°28' E 036°39'0 0.0
2018-Jun-19 09:29N 45°28' E 036°39'0 0.2
2018-Jun-19 08:43N 45°28' E 036°39'1 4.1
2018-Jun-19 08:30N 45°28' E 036°40'  
2018-Jun-16 23:35N 45°26' E 036°42'1 5.8
2018-Jun-16 23:25N 45°25' E 036°41'2 5.9
2018-Jun-16 23:00N 45°23' E 036°40'3 5.7
2018-Jun-16 22:30N 45°21' E 036°38'11 1.7
2018-Jun-16 16:13N 45°11' E 036°30'0 0.0
2018-Jun-16 14:14N 45°11' E 036°30'0 0.0
2018-Jun-16 13:50N 45°11' E 036°30'167 4.3
2018-Jun-14 22:59N 44°59' E 032°33'3 5.9
2018-Jun-14 22:30N 45°02' E 032°32'3 6.0
2018-Jun-14 22:00N 45°04' E 032°30'4 5.9
2018-Jun-14 21:20N 45°08' E 032°28'2 5.7
2018-Jun-14 21:00N 45°10' E 032°26'83 5.9
2018-Jun-14 06:57N 46°18' E 031°19'7 5.6
2018-Jun-14 05:44N 46°23' E 031°13'1 5.6
2018-Jun-14 05:29N 46°24' E 031°12'3 5.8
2018-Jun-14 04:59N 46°25' E 031°08'3 5.6
2018-Jun-14 04:30N 46°26' E 031°04'3 5.4
2018-Jun-14 03:57N 46°27' E 031°00'2 5.2
2018-Jun-14 03:30N 46°28' E 030°57'3 5.2
2018-Jun-14 03:00N 46°31' E 030°56'2 4.9
2018-Jun-14 02:30N 46°33' E 030°58'3 5.1
2018-Jun-14 02:00N 46°34' E 031°00'3 5.3
2018-Jun-14 01:30N 46°37' E 031°01'0 0.2
2018-Jun-14 01:00N 46°37' E 031°02'0 0.0
2018-Jun-13 23:17N 46°37' E 031°02'0 0.0
2018-Jun-13 22:59N 46°37' E 031°02'0 0.0
2018-Jun-13 22:30N 46°37' E 031°02'0 0.0
2018-Jun-13 22:00N 46°37' E 031°02'0 0.0
2018-Jun-13 21:30N 46°37' E 031°02'0 0.0
2018-Jun-13 21:00N 46°37' E 031°02'0 0.0
2018-Jun-13 20:30N 46°37' E 031°02'0 0.0
2018-Jun-13 19:52N 46°37' E 031°02'0 0.0
2018-Jun-13 19:25N 46°37' E 031°02'0 0.0
2018-Jun-13 18:59N 46°37' E 031°02'0 0.0
2018-Jun-13 18:30N 46°37' E 031°02'0 0.0
2018-Jun-13 17:57N 46°37' E 031°02'0 0.0
2018-Jun-13 17:30N 46°37' E 031°02'0 0.0
2018-Jun-13 16:58N 46°37' E 031°02'0 0.0
2018-Jun-13 16:25N 46°37' E 031°02'0 0.0
2018-Jun-13 16:00N 46°37' E 031°02'0 0.0
2018-Jun-13 03:54N 46°37' E 031°02'0 0.0
2018-Jun-13 03:29N 46°37' E 031°02'0 0.0
2018-Jun-13 02:59N 46°37' E 031°02'0 0.0
2018-Jun-13 02:29N 46°37' E 031°02'0 0.0
2018-Jun-13 01:58N 46°37' E 031°02'0 0.0
2018-Jun-13 01:25N 46°37' E 031°02'0 0.0
2018-Jun-13 00:56N 46°37' E 031°02'0 0.1
2018-Jun-13 00:30N 46°37' E 031°02'0 0.0
2018-Jun-13 00:00N 46°37' E 031°02'0 0.0
2018-Jun-12 23:30N 46°37' E 031°02'0 0.0
2018-Jun-12 23:00N 46°37' E 031°02'1 1.4
2018-Jun-12 22:28N 46°36' E 031°01'3 5.5
2018-Jun-12 22:00N 46°34' E 031°01'2 3.3
2018-Jun-12 21:30N 46°35' E 031°03'0 0.1
2018-Jun-12 20:57N 46°35' E 031°03'0 0.0
2018-Jun-12 20:30N 46°35' E 031°03'  

Dump ship's entire track history